sensor_id;sensor_type;location;lat;lon;timestamp;P1;durP1;ratioP1;P2;durP2;ratioP2
80293;SDS011;69594;43.516;1.498;2023-12-20T00:00:04;16.60;;;8.97;;
80293;SDS011;69594;43.516;1.498;2023-12-20T00:02:30;14.90;;;8.15;;
80293;SDS011;69594;43.516;1.498;2023-12-20T00:04:55;15.38;;;8.13;;
80293;SDS011;69594;43.516;1.498;2023-12-20T00:07:21;15.87;;;8.17;;
80293;SDS011;69594;43.516;1.498;2023-12-20T00:09:46;14.07;;;7.80;;
80293;SDS011;69594;43.516;1.498;2023-12-20T00:12:12;15.53;;;8.63;;
80293;SDS011;69594;43.516;1.498;2023-12-20T00:14:37;14.63;;;7.63;;
80293;SDS011;69594;43.516;1.498;2023-12-20T00:17:02;14.23;;;7.97;;
80293;SDS011;69594;43.516;1.498;2023-12-20T00:19:28;14.02;;;8.05;;
80293;SDS011;69594;43.516;1.498;2023-12-20T00:21:53;12.80;;;7.57;;
80293;SDS011;69594;43.516;1.498;2023-12-20T00:24:18;18.13;;;8.10;;
80293;SDS011;69594;43.516;1.498;2023-12-20T00:26:44;13.17;;;7.47;;
80293;SDS011;69594;43.516;1.498;2023-12-20T00:29:09;12.43;;;7.40;;
80293;SDS011;69594;43.516;1.498;2023-12-20T00:31:34;13.20;;;7.77;;
80293;SDS011;69594;43.516;1.498;2023-12-20T00:34:00;11.63;;;7.77;;
80293;SDS011;69594;43.516;1.498;2023-12-20T00:36:25;12.83;;;8.10;;
80293;SDS011;69594;43.516;1.498;2023-12-20T00:38:50;12.73;;;7.77;;
80293;SDS011;69594;43.516;1.498;2023-12-20T00:41:16;14.13;;;7.45;;
80293;SDS011;69594;43.516;1.498;2023-12-20T00:43:42;13.07;;;7.57;;
80293;SDS011;69594;43.516;1.498;2023-12-20T00:46:07;14.77;;;7.47;;
80293;SDS011;69594;43.516;1.498;2023-12-20T00:48:32;15.13;;;8.40;;
80293;SDS011;69594;43.516;1.498;2023-12-20T00:50:58;13.20;;;8.55;;
80293;SDS011;69594;43.516;1.498;2023-12-20T00:53:23;19.00;;;9.00;;
80293;SDS011;69594;43.516;1.498;2023-12-20T00:55:48;13.17;;;7.33;;
80293;SDS011;69594;43.516;1.498;2023-12-20T00:58:15;14.68;;;8.60;;
80293;SDS011;69594;43.516;1.498;2023-12-20T01:00:40;14.35;;;8.05;;
80293;SDS011;69594;43.516;1.498;2023-12-20T01:03:07;14.35;;;8.35;;
80293;SDS011;69594;43.516;1.498;2023-12-20T01:05:32;12.38;;;7.70;;
80293;SDS011;69594;43.516;1.498;2023-12-20T01:07:57;15.83;;;8.30;;
80293;SDS011;69594;43.516;1.498;2023-12-20T01:10:23;13.67;;;8.50;;
80293;SDS011;69594;43.516;1.498;2023-12-20T01:12:48;14.83;;;8.33;;
80293;SDS011;69594;43.516;1.498;2023-12-20T01:15:14;14.23;;;8.65;;
80293;SDS011;69594;43.516;1.498;2023-12-20T01:17:39;13.80;;;8.13;;
80293;SDS011;69594;43.516;1.498;2023-12-20T01:20:04;15.23;;;7.97;;
80293;SDS011;69594;43.516;1.498;2023-12-20T01:22:31;11.02;;;7.80;;
80293;SDS011;69594;43.516;1.498;2023-12-20T01:24:56;13.30;;;7.45;;
80293;SDS011;69594;43.516;1.498;2023-12-20T01:27:21;12.80;;;7.67;;
80293;SDS011;69594;43.516;1.498;2023-12-20T01:29:47;11.47;;;7.30;;
80293;SDS011;69594;43.516;1.498;2023-12-20T01:32:12;10.77;;;6.50;;
80293;SDS011;69594;43.516;1.498;2023-12-20T01:34:37;11.33;;;7.53;;
80293;SDS011;69594;43.516;1.498;2023-12-20T01:37:03;12.37;;;8.27;;
80293;SDS011;69594;43.516;1.498;2023-12-20T01:39:29;10.75;;;7.40;;
80293;SDS011;69594;43.516;1.498;2023-12-20T01:41:54;12.53;;;7.97;;
80293;SDS011;69594;43.516;1.498;2023-12-20T01:44:19;11.30;;;6.77;;
80293;SDS011;69594;43.516;1.498;2023-12-20T01:46:45;11.27;;;7.03;;
80293;SDS011;69594;43.516;1.498;2023-12-20T01:49:10;13.45;;;7.20;;
80293;SDS011;69594;43.516;1.498;2023-12-20T01:51:36;10.50;;;6.40;;
80293;SDS011;69594;43.516;1.498;2023-12-20T01:54:01;12.53;;;7.13;;
80293;SDS011;69594;43.516;1.498;2023-12-20T01:56:26;11.30;;;6.40;;
80293;SDS011;69594;43.516;1.498;2023-12-20T01:58:53;12.70;;;7.03;;
80293;SDS011;69594;43.516;1.498;2023-12-20T02:01:20;12.10;;;6.32;;
80293;SDS011;69594;43.516;1.498;2023-12-20T02:03:45;13.83;;;7.00;;
80293;SDS011;69594;43.516;1.498;2023-12-20T02:06:11;11.50;;;7.70;;
80293;SDS011;69594;43.516;1.498;2023-12-20T02:08:36;12.85;;;7.25;;
80293;SDS011;69594;43.516;1.498;2023-12-20T02:11:01;12.50;;;7.17;;
80293;SDS011;69594;43.516;1.498;2023-12-20T02:13:27;10.67;;;6.73;;
80293;SDS011;69594;43.516;1.498;2023-12-20T02:15:52;10.67;;;6.63;;
80293;SDS011;69594;43.516;1.498;2023-12-20T02:18:17;9.33;;;6.10;;
80293;SDS011;69594;43.516;1.498;2023-12-20T02:20:43;12.47;;;6.70;;
80293;SDS011;69594;43.516;1.498;2023-12-20T02:23:08;11.52;;;6.93;;
80293;SDS011;69594;43.516;1.498;2023-12-20T02:25:33;16.63;;;7.68;;
80293;SDS011;69594;43.516;1.498;2023-12-20T02:27:59;13.20;;;6.67;;
80293;SDS011;69594;43.516;1.498;2023-12-20T02:30:24;10.10;;;6.53;;
80293;SDS011;69594;43.516;1.498;2023-12-20T02:32:49;10.73;;;6.20;;
80293;SDS011;69594;43.516;1.498;2023-12-20T02:35:15;11.90;;;6.60;;
80293;SDS011;69594;43.516;1.498;2023-12-20T02:37:41;12.15;;;6.80;;
80293;SDS011;69594;43.516;1.498;2023-12-20T02:40:06;10.83;;;6.17;;
80293;SDS011;69594;43.516;1.498;2023-12-20T02:42:32;9.97;;;6.17;;
80293;SDS011;69594;43.516;1.498;2023-12-20T02:44:57;10.40;;;6.57;;
80293;SDS011;69594;43.516;1.498;2023-12-20T02:47:23;11.60;;;6.47;;
80293;SDS011;69594;43.516;1.498;2023-12-20T02:49:48;11.30;;;6.50;;
80293;SDS011;69594;43.516;1.498;2023-12-20T02:52:14;9.80;;;6.20;;
80293;SDS011;69594;43.516;1.498;2023-12-20T02:54:39;9.20;;;5.53;;
80293;SDS011;69594;43.516;1.498;2023-12-20T02:57:05;11.73;;;7.50;;
80293;SDS011;69594;43.516;1.498;2023-12-20T02:59:30;10.17;;;5.83;;
80293;SDS011;69594;43.516;1.498;2023-12-20T03:01:56;10.00;;;5.63;;
80293;SDS011;69594;43.516;1.498;2023-12-20T03:04:21;7.63;;;4.80;;
80293;SDS011;69594;43.516;1.498;2023-12-20T03:06:46;7.67;;;5.00;;
80293;SDS011;69594;43.516;1.498;2023-12-20T03:09:12;8.27;;;5.27;;
80293;SDS011;69594;43.516;1.498;2023-12-20T03:11:37;9.33;;;5.07;;
80293;SDS011;69594;43.516;1.498;2023-12-20T03:14:02;6.67;;;4.37;;
80293;SDS011;69594;43.516;1.498;2023-12-20T03:16:27;10.87;;;5.30;;
80293;SDS011;69594;43.516;1.498;2023-12-20T03:18:53;8.13;;;4.70;;
80293;SDS011;69594;43.516;1.498;2023-12-20T03:21:18;8.63;;;4.70;;
80293;SDS011;69594;43.516;1.498;2023-12-20T03:23:43;10.30;;;5.37;;
80293;SDS011;69594;43.516;1.498;2023-12-20T03:26:09;8.95;;;5.45;;
80293;SDS011;69594;43.516;1.498;2023-12-20T03:28:34;8.98;;;5.05;;
80293;SDS011;69594;43.516;1.498;2023-12-20T03:31:00;11.15;;;6.35;;
80293;SDS011;69594;43.516;1.498;2023-12-20T03:33:27;10.27;;;5.63;;
80293;SDS011;69594;43.516;1.498;2023-12-20T03:35:53;11.48;;;6.28;;
80293;SDS011;69594;43.516;1.498;2023-12-20T03:38:18;10.80;;;6.83;;
80293;SDS011;69594;43.516;1.498;2023-12-20T03:40:43;10.10;;;6.00;;
80293;SDS011;69594;43.516;1.498;2023-12-20T03:43:08;10.50;;;6.27;;
80293;SDS011;69594;43.516;1.498;2023-12-20T03:45:34;10.77;;;6.50;;
80293;SDS011;69594;43.516;1.498;2023-12-20T03:47:59;10.00;;;6.67;;
80293;SDS011;69594;43.516;1.498;2023-12-20T03:50:28;12.17;;;6.47;;
80293;SDS011;69594;43.516;1.498;2023-12-20T03:52:54;9.70;;;6.43;;
80293;SDS011;69594;43.516;1.498;2023-12-20T03:55:19;13.00;;;6.53;;
80293;SDS011;69594;43.516;1.498;2023-12-20T03:57:44;13.63;;;6.27;;
80293;SDS011;69594;43.516;1.498;2023-12-20T04:00:10;10.57;;;6.80;;
80293;SDS011;69594;43.516;1.498;2023-12-20T04:02:36;10.85;;;6.60;;
80293;SDS011;69594;43.516;1.498;2023-12-20T04:05:01;12.70;;;7.90;;
80293;SDS011;69594;43.516;1.498;2023-12-20T04:07:27;11.40;;;6.87;;
80293;SDS011;69594;43.516;1.498;2023-12-20T04:09:52;11.43;;;6.87;;
80293;SDS011;69594;43.516;1.498;2023-12-20T04:12:17;10.80;;;6.87;;
80293;SDS011;69594;43.516;1.498;2023-12-20T04:14:42;12.67;;;7.67;;
80293;SDS011;69594;43.516;1.498;2023-12-20T04:17:08;14.50;;;7.30;;
80293;SDS011;69594;43.516;1.498;2023-12-20T04:19:33;11.87;;;7.17;;
80293;SDS011;69594;43.516;1.498;2023-12-20T04:21:58;11.90;;;7.77;;
80293;SDS011;69594;43.516;1.498;2023-12-20T04:24:24;12.50;;;7.30;;
80293;SDS011;69594;43.516;1.498;2023-12-20T04:26:49;12.13;;;7.10;;
80293;SDS011;69594;43.516;1.498;2023-12-20T04:29:14;13.27;;;7.80;;
80293;SDS011;69594;43.516;1.498;2023-12-20T04:31:40;12.87;;;8.20;;
80293;SDS011;69594;43.516;1.498;2023-12-20T04:34:05;11.93;;;7.60;;
80293;SDS011;69594;43.516;1.498;2023-12-20T04:36:30;11.80;;;7.00;;
80293;SDS011;69594;43.516;1.498;2023-12-20T04:38:56;11.13;;;7.03;;
80293;SDS011;69594;43.516;1.498;2023-12-20T04:41:21;12.50;;;7.20;;
80293;SDS011;69594;43.516;1.498;2023-12-20T04:43:46;12.30;;;7.18;;
80293;SDS011;69594;43.516;1.498;2023-12-20T04:46:12;10.98;;;7.28;;
80293;SDS011;69594;43.516;1.498;2023-12-20T04:48:37;9.97;;;5.77;;
80293;SDS011;69594;43.516;1.498;2023-12-20T04:51:02;11.43;;;6.70;;
80293;SDS011;69594;43.516;1.498;2023-12-20T04:53:27;12.50;;;6.20;;
80293;SDS011;69594;43.516;1.498;2023-12-20T04:55:53;12.00;;;7.37;;
80293;SDS011;69594;43.516;1.498;2023-12-20T04:58:18;10.80;;;6.37;;
80293;SDS011;69594;43.516;1.498;2023-12-20T05:00:43;8.93;;;5.57;;
80293;SDS011;69594;43.516;1.498;2023-12-20T05:03:09;9.90;;;5.65;;
80293;SDS011;69594;43.516;1.498;2023-12-20T05:05:34;9.53;;;6.70;;
80293;SDS011;69594;43.516;1.498;2023-12-20T05:08:00;10.43;;;5.73;;
80293;SDS011;69594;43.516;1.498;2023-12-20T05:10:26;10.13;;;6.00;;
80293;SDS011;69594;43.516;1.498;2023-12-20T05:12:52;10.02;;;5.13;;
80293;SDS011;69594;43.516;1.498;2023-12-20T05:15:17;9.03;;;5.47;;
80293;SDS011;69594;43.516;1.498;2023-12-20T05:17:42;9.13;;;5.13;;
80293;SDS011;69594;43.516;1.498;2023-12-20T05:20:08;8.23;;;4.93;;
80293;SDS011;69594;43.516;1.498;2023-12-20T05:22:33;8.13;;;5.00;;
80293;SDS011;69594;43.516;1.498;2023-12-20T05:24:58;8.00;;;4.68;;
80293;SDS011;69594;43.516;1.498;2023-12-20T05:27:24;8.40;;;5.47;;
80293;SDS011;69594;43.516;1.498;2023-12-20T05:29:49;8.07;;;4.63;;
80293;SDS011;69594;43.516;1.498;2023-12-20T05:32:15;9.73;;;4.63;;
80293;SDS011;69594;43.516;1.498;2023-12-20T05:34:40;7.80;;;4.85;;
80293;SDS011;69594;43.516;1.498;2023-12-20T05:37:06;7.95;;;4.57;;
80293;SDS011;69594;43.516;1.498;2023-12-20T05:39:31;7.57;;;4.17;;
80293;SDS011;69594;43.516;1.498;2023-12-20T05:41:56;9.00;;;4.87;;
80293;SDS011;69594;43.516;1.498;2023-12-20T05:44:22;6.80;;;4.30;;
80293;SDS011;69594;43.516;1.498;2023-12-20T05:46:47;7.83;;;4.10;;
80293;SDS011;69594;43.516;1.498;2023-12-20T05:49:12;8.23;;;4.27;;
80293;SDS011;69594;43.516;1.498;2023-12-20T05:51:38;8.63;;;4.50;;
80293;SDS011;69594;43.516;1.498;2023-12-20T05:54:04;5.87;;;3.70;;
80293;SDS011;69594;43.516;1.498;2023-12-20T05:56:29;7.27;;;3.60;;
80293;SDS011;69594;43.516;1.498;2023-12-20T05:58:54;8.17;;;4.37;;
80293;SDS011;69594;43.516;1.498;2023-12-20T06:01:19;5.70;;;3.10;;
80293;SDS011;69594;43.516;1.498;2023-12-20T06:03:45;6.73;;;3.23;;
80293;SDS011;69594;43.516;1.498;2023-12-20T06:06:13;6.25;;;3.35;;
80293;SDS011;69594;43.516;1.498;2023-12-20T06:08:38;4.78;;;3.17;;
80293;SDS011;69594;43.516;1.498;2023-12-20T06:11:04;5.13;;;2.88;;
80293;SDS011;69594;43.516;1.498;2023-12-20T06:13:30;6.32;;;3.17;;
80293;SDS011;69594;43.516;1.498;2023-12-20T06:15:56;5.97;;;3.22;;
80293;SDS011;69594;43.516;1.498;2023-12-20T06:18:21;5.00;;;2.50;;
80293;SDS011;69594;43.516;1.498;2023-12-20T06:20:47;4.60;;;2.75;;
80293;SDS011;69594;43.516;1.498;2023-12-20T06:23:12;4.72;;;2.95;;
80293;SDS011;69594;43.516;1.498;2023-12-20T06:25:37;3.80;;;2.50;;
80293;SDS011;69594;43.516;1.498;2023-12-20T06:28:03;5.03;;;2.50;;
80293;SDS011;69594;43.516;1.498;2023-12-20T06:30:28;3.57;;;2.40;;
80293;SDS011;69594;43.516;1.498;2023-12-20T06:32:54;3.57;;;2.17;;
80293;SDS011;69594;43.516;1.498;2023-12-20T06:35:19;4.03;;;2.40;;
80293;SDS011;69594;43.516;1.498;2023-12-20T06:37:45;3.33;;;2.00;;
80293;SDS011;69594;43.516;1.498;2023-12-20T06:40:10;3.30;;;2.13;;
80293;SDS011;69594;43.516;1.498;2023-12-20T06:42:37;4.10;;;2.13;;
80293;SDS011;69594;43.516;1.498;2023-12-20T06:45:02;3.93;;;2.60;;
80293;SDS011;69594;43.516;1.498;2023-12-20T06:47:28;3.13;;;2.03;;
80293;SDS011;69594;43.516;1.498;2023-12-20T06:49:53;4.32;;;2.30;;
80293;SDS011;69594;43.516;1.498;2023-12-20T06:52:18;3.80;;;2.03;;
80293;SDS011;69594;43.516;1.498;2023-12-20T06:54:43;3.33;;;2.43;;
80293;SDS011;69594;43.516;1.498;2023-12-20T06:57:09;6.10;;;2.30;;
80293;SDS011;69594;43.516;1.498;2023-12-20T06:59:38;3.43;;;2.23;;
80293;SDS011;69594;43.516;1.498;2023-12-20T07:02:05;4.43;;;2.15;;
80293;SDS011;69594;43.516;1.498;2023-12-20T07:04:30;3.58;;;2.20;;
80293;SDS011;69594;43.516;1.498;2023-12-20T07:06:55;4.88;;;2.40;;
80293;SDS011;69594;43.516;1.498;2023-12-20T07:09:22;3.57;;;2.10;;
80293;SDS011;69594;43.516;1.498;2023-12-20T07:11:47;7.50;;;2.40;;
80293;SDS011;69594;43.516;1.498;2023-12-20T07:14:13;3.63;;;2.47;;
80293;SDS011;69594;43.516;1.498;2023-12-20T07:16:38;4.30;;;2.40;;
80293;SDS011;69594;43.516;1.498;2023-12-20T07:19:03;3.73;;;2.13;;
80293;SDS011;69594;43.516;1.498;2023-12-20T07:21:29;2.60;;;1.80;;
80293;SDS011;69594;43.516;1.498;2023-12-20T07:23:54;2.90;;;1.97;;
80293;SDS011;69594;43.516;1.498;2023-12-20T07:26:19;2.83;;;1.90;;
80293;SDS011;69594;43.516;1.498;2023-12-20T07:28:46;2.42;;;1.50;;
80293;SDS011;69594;43.516;1.498;2023-12-20T07:31:11;2.47;;;1.50;;
80293;SDS011;69594;43.516;1.498;2023-12-20T07:33:36;3.70;;;1.70;;
80293;SDS011;69594;43.516;1.498;2023-12-20T07:36:02;2.10;;;1.50;;
80293;SDS011;69594;43.516;1.498;2023-12-20T07:38:27;2.15;;;1.38;;
80293;SDS011;69594;43.516;1.498;2023-12-20T07:40:52;2.57;;;1.83;;
80293;SDS011;69594;43.516;1.498;2023-12-20T07:43:17;2.17;;;1.50;;
80293;SDS011;69594;43.516;1.498;2023-12-20T07:45:43;2.60;;;1.70;;
80293;SDS011;69594;43.516;1.498;2023-12-20T07:48:08;5.17;;;1.80;;
80293;SDS011;69594;43.516;1.498;2023-12-20T07:50:33;2.93;;;1.87;;
80293;SDS011;69594;43.516;1.498;2023-12-20T07:52:59;2.90;;;2.07;;
80293;SDS011;69594;43.516;1.498;2023-12-20T07:55:25;2.80;;;1.52;;
80293;SDS011;69594;43.516;1.498;2023-12-20T07:57:51;3.30;;;2.00;;
80293;SDS011;69594;43.516;1.498;2023-12-20T08:00:17;2.87;;;1.57;;
80293;SDS011;69594;43.516;1.498;2023-12-20T08:02:44;2.95;;;1.75;;
80293;SDS011;69594;43.516;1.498;2023-12-20T08:05:09;2.80;;;1.63;;
80293;SDS011;69594;43.516;1.498;2023-12-20T08:07:35;4.37;;;1.73;;
80293;SDS011;69594;43.516;1.498;2023-12-20T08:10:00;4.40;;;2.95;;
80293;SDS011;69594;43.516;1.498;2023-12-20T08:12:25;6.55;;;2.28;;
80293;SDS011;69594;43.516;1.498;2023-12-20T08:14:52;1.58;;;1.35;;
80293;SDS011;69594;43.516;1.498;2023-12-20T08:17:18;2.35;;;1.40;;
80293;SDS011;69594;43.516;1.498;2023-12-20T08:19:44;2.80;;;1.23;;
80293;SDS011;69594;43.516;1.498;2023-12-20T08:22:09;3.47;;;1.40;;
80293;SDS011;69594;43.516;1.498;2023-12-20T08:24:35;2.27;;;1.47;;
80293;SDS011;69594;43.516;1.498;2023-12-20T08:27:00;2.60;;;1.60;;
80293;SDS011;69594;43.516;1.498;2023-12-20T08:29:25;2.30;;;1.67;;
80293;SDS011;69594;43.516;1.498;2023-12-20T08:31:54;1.70;;;1.30;;
80293;SDS011;69594;43.516;1.498;2023-12-20T08:34:20;1.30;;;1.20;;
80293;SDS011;69594;43.516;1.498;2023-12-20T08:36:45;2.30;;;1.38;;
80293;SDS011;69594;43.516;1.498;2023-12-20T08:39:11;2.88;;;1.45;;
80293;SDS011;69594;43.516;1.498;2023-12-20T08:41:36;2.47;;;1.10;;
80293;SDS011;69594;43.516;1.498;2023-12-20T08:44:02;2.10;;;1.50;;
80293;SDS011;69594;43.516;1.498;2023-12-20T08:46:27;2.20;;;1.70;;
80293;SDS011;69594;43.516;1.498;2023-12-20T08:48:53;2.70;;;1.53;;
80293;SDS011;69594;43.516;1.498;2023-12-20T08:51:18;3.37;;;1.70;;
80293;SDS011;69594;43.516;1.498;2023-12-20T08:53:44;3.00;;;1.73;;
80293;SDS011;69594;43.516;1.498;2023-12-20T08:56:10;2.50;;;1.83;;
80293;SDS011;69594;43.516;1.498;2023-12-20T08:58:35;3.20;;;2.00;;
80293;SDS011;69594;43.516;1.498;2023-12-20T09:01:01;3.38;;;1.50;;
80293;SDS011;69594;43.516;1.498;2023-12-20T09:03:26;3.83;;;1.83;;
80293;SDS011;69594;43.516;1.498;2023-12-20T09:05:51;2.20;;;1.70;;
80293;SDS011;69594;43.516;1.498;2023-12-20T09:08:17;4.20;;;1.50;;
80293;SDS011;69594;43.516;1.498;2023-12-20T09:10:42;2.70;;;1.70;;
80293;SDS011;69594;43.516;1.498;2023-12-20T09:13:08;3.28;;;1.90;;
80293;SDS011;69594;43.516;1.498;2023-12-20T09:15:33;2.55;;;1.58;;
80293;SDS011;69594;43.516;1.498;2023-12-20T09:17:59;2.73;;;1.70;;
80293;SDS011;69594;43.516;1.498;2023-12-20T09:20:24;4.97;;;2.17;;
80293;SDS011;69594;43.516;1.498;2023-12-20T09:22:50;5.77;;;2.00;;
80293;SDS011;69594;43.516;1.498;2023-12-20T09:25:15;2.63;;;1.80;;
80293;SDS011;69594;43.516;1.498;2023-12-20T09:27:42;3.63;;;1.90;;
80293;SDS011;69594;43.516;1.498;2023-12-20T09:30:08;3.50;;;1.67;;
80293;SDS011;69594;43.516;1.498;2023-12-20T09:32:33;3.80;;;1.97;;
80293;SDS011;69594;43.516;1.498;2023-12-20T09:34:59;2.33;;;1.40;;
80293;SDS011;69594;43.516;1.498;2023-12-20T09:37:28;3.30;;;2.37;;
80293;SDS011;69594;43.516;1.498;2023-12-20T09:39:53;2.95;;;1.80;;
80293;SDS011;69594;43.516;1.498;2023-12-20T09:42:38;3.45;;;2.05;;
80293;SDS011;69594;43.516;1.498;2023-12-20T09:45:06;6.20;;;1.95;;
80293;SDS011;69594;43.516;1.498;2023-12-20T09:47:34;3.20;;;1.40;;
80293;SDS011;69594;43.516;1.498;2023-12-20T09:50:00;5.47;;;1.90;;
80293;SDS011;69594;43.516;1.498;2023-12-20T09:52:26;5.20;;;2.20;;
80293;SDS011;69594;43.516;1.498;2023-12-20T09:54:52;6.05;;;1.50;;
80293;SDS011;69594;43.516;1.498;2023-12-20T09:57:17;2.03;;;1.52;;
80293;SDS011;69594;43.516;1.498;2023-12-20T09:59:43;3.03;;;1.57;;
80293;SDS011;69594;43.516;1.498;2023-12-20T10:02:09;3.60;;;1.43;;
80293;SDS011;69594;43.516;1.498;2023-12-20T10:04:37;3.08;;;1.58;;
80293;SDS011;69594;43.516;1.498;2023-12-20T10:07:11;4.18;;;1.60;;
80293;SDS011;69594;43.516;1.498;2023-12-20T10:09:36;4.90;;;1.60;;
80293;SDS011;69594;43.516;1.498;2023-12-20T10:12:02;6.93;;;1.30;;
80293;SDS011;69594;43.516;1.498;2023-12-20T10:14:27;2.53;;;1.20;;
80293;SDS011;69594;43.516;1.498;2023-12-20T10:16:52;5.17;;;1.70;;
80293;SDS011;69594;43.516;1.498;2023-12-20T10:19:19;3.97;;;1.38;;
80293;SDS011;69594;43.516;1.498;2023-12-20T10:21:44;6.82;;;1.10;;
80293;SDS011;69594;43.516;1.498;2023-12-20T10:24:11;2.23;;;1.07;;
80293;SDS011;69594;43.516;1.498;2023-12-20T10:26:41;4.22;;;1.25;;
80293;SDS011;69594;43.516;1.498;2023-12-20T10:29:06;4.43;;;1.37;;
80293;SDS011;69594;43.516;1.498;2023-12-20T10:31:32;3.58;;;1.20;;
80293;SDS011;69594;43.516;1.498;2023-12-20T10:33:59;2.25;;;1.58;;
80293;SDS011;69594;43.516;1.498;2023-12-20T10:36:25;3.83;;;1.58;;
80293;SDS011;69594;43.516;1.498;2023-12-20T10:38:51;4.00;;;1.55;;
80293;SDS011;69594;43.516;1.498;2023-12-20T10:41:18;4.35;;;1.60;;
80293;SDS011;69594;43.516;1.498;2023-12-20T10:43:46;2.00;;;1.20;;
80293;SDS011;69594;43.516;1.498;2023-12-20T10:46:12;3.05;;;1.70;;
80293;SDS011;69594;43.516;1.498;2023-12-20T10:48:37;1.50;;;1.00;;
80293;SDS011;69594;43.516;1.498;2023-12-20T10:51:05;2.38;;;1.30;;
80293;SDS011;69594;43.516;1.498;2023-12-20T10:53:30;1.88;;;1.20;;
80293;SDS011;69594;43.516;1.498;2023-12-20T10:55:56;3.75;;;1.45;;
80293;SDS011;69594;43.516;1.498;2023-12-20T10:58:25;5.45;;;1.50;;
80293;SDS011;69594;43.516;1.498;2023-12-20T11:00:52;2.05;;;1.10;;
80293;SDS011;69594;43.516;1.498;2023-12-20T11:03:23;2.72;;;1.20;;
80293;SDS011;69594;43.516;1.498;2023-12-20T11:05:55;2.45;;;1.20;;
80293;SDS011;69594;43.516;1.498;2023-12-20T11:08:38;2.33;;;1.27;;
80293;SDS011;69594;43.516;1.498;2023-12-20T11:13:41;2.83;;;1.00;;
80293;SDS011;69594;43.516;1.498;2023-12-20T11:16:09;4.20;;;1.98;;
80293;SDS011;69594;43.516;1.498;2023-12-20T11:18:35;3.97;;;1.37;;
80293;SDS011;69594;43.516;1.498;2023-12-20T11:21:01;3.33;;;1.20;;
80293;SDS011;69594;43.516;1.498;2023-12-20T11:23:29;4.35;;;1.38;;
80293;SDS011;69594;43.516;1.498;2023-12-20T11:25:55;3.30;;;1.17;;
80293;SDS011;69594;43.516;1.498;2023-12-20T11:28:23;3.20;;;1.17;;
80293;SDS011;69594;43.516;1.498;2023-12-20T11:30:51;3.58;;;1.20;;
80293;SDS011;69594;43.516;1.498;2023-12-20T11:33:16;2.95;;;1.30;;
80293;SDS011;69594;43.516;1.498;2023-12-20T11:35:46;6.68;;;2.20;;
80293;SDS011;69594;43.516;1.498;2023-12-20T11:38:12;1.67;;;1.00;;
80293;SDS011;69594;43.516;1.498;2023-12-20T11:40:39;3.17;;;1.33;;
80293;SDS011;69594;43.516;1.498;2023-12-20T11:43:06;3.90;;;1.40;;
80293;SDS011;69594;43.516;1.498;2023-12-20T11:45:31;3.67;;;1.47;;
80293;SDS011;69594;43.516;1.498;2023-12-20T11:47:57;4.95;;;1.45;;
80293;SDS011;69594;43.516;1.498;2023-12-20T11:50:23;5.10;;;1.50;;
80293;SDS011;69594;43.516;1.498;2023-12-20T11:52:48;2.60;;;1.42;;
80293;SDS011;69594;43.516;1.498;2023-12-20T11:55:14;5.00;;;1.53;;
80293;SDS011;69594;43.516;1.498;2023-12-20T11:57:39;1.53;;;1.13;;
80293;SDS011;69594;43.516;1.498;2023-12-20T12:00:05;2.25;;;1.00;;
80293;SDS011;69594;43.516;1.498;2023-12-20T12:02:31;2.90;;;1.10;;
80293;SDS011;69594;43.516;1.498;2023-12-20T12:04:57;6.05;;;1.50;;
80293;SDS011;69594;43.516;1.498;2023-12-20T12:07:23;3.28;;;1.65;;
80293;SDS011;69594;43.516;1.498;2023-12-20T12:09:49;3.87;;;1.17;;
80293;SDS011;69594;43.516;1.498;2023-12-20T12:12:14;3.33;;;0.70;;
80293;SDS011;69594;43.516;1.498;2023-12-20T12:14:40;2.63;;;0.80;;
80293;SDS011;69594;43.516;1.498;2023-12-20T12:17:12;3.75;;;0.93;;
80293;SDS011;69594;43.516;1.498;2023-12-20T12:19:38;3.42;;;0.90;;
80293;SDS011;69594;43.516;1.498;2023-12-20T12:22:07;1.23;;;0.82;;
80293;SDS011;69594;43.516;1.498;2023-12-20T12:24:34;3.45;;;1.15;;
80293;SDS011;69594;43.516;1.498;2023-12-20T12:26:59;7.07;;;1.10;;
80293;SDS011;69594;43.516;1.498;2023-12-20T12:29:25;2.33;;;0.90;;
80293;SDS011;69594;43.516;1.498;2023-12-20T12:31:50;4.13;;;1.53;;
80293;SDS011;69594;43.516;1.498;2023-12-20T12:34:16;4.30;;;0.80;;
80293;SDS011;69594;43.516;1.498;2023-12-20T12:36:42;1.10;;;0.80;;
80293;SDS011;69594;43.516;1.498;2023-12-20T12:39:08;3.67;;;1.00;;
80293;SDS011;69594;43.516;1.498;2023-12-20T12:41:33;2.60;;;0.93;;
80293;SDS011;69594;43.516;1.498;2023-12-20T12:43:58;4.60;;;1.07;;
80293;SDS011;69594;43.516;1.498;2023-12-20T12:46:24;4.97;;;1.10;;
80293;SDS011;69594;43.516;1.498;2023-12-20T12:48:49;4.07;;;1.00;;
80293;SDS011;69594;43.516;1.498;2023-12-20T12:51:15;1.75;;;0.77;;
80293;SDS011;69594;43.516;1.498;2023-12-20T12:53:41;2.70;;;0.80;;
80293;SDS011;69594;43.516;1.498;2023-12-20T12:56:06;3.07;;;0.80;;
80293;SDS011;69594;43.516;1.498;2023-12-20T12:58:32;3.53;;;0.90;;
80293;SDS011;69594;43.516;1.498;2023-12-20T13:00:57;4.28;;;1.08;;
80293;SDS011;69594;43.516;1.498;2023-12-20T13:03:22;3.90;;;0.90;;
80293;SDS011;69594;43.516;1.498;2023-12-20T13:05:48;8.10;;;1.63;;
80293;SDS011;69594;43.516;1.498;2023-12-20T13:08:14;2.93;;;1.03;;
80293;SDS011;69594;43.516;1.498;2023-12-20T13:10:39;3.83;;;1.00;;
80293;SDS011;69594;43.516;1.498;2023-12-20T13:13:05;5.00;;;1.50;;
80293;SDS011;69594;43.516;1.498;2023-12-20T13:15:30;3.67;;;1.07;;
80293;SDS011;69594;43.516;1.498;2023-12-20T13:17:55;2.43;;;1.17;;
80293;SDS011;69594;43.516;1.498;2023-12-20T13:20:21;4.13;;;1.00;;
80293;SDS011;69594;43.516;1.498;2023-12-20T13:22:47;5.25;;;1.23;;
80293;SDS011;69594;43.516;1.498;2023-12-20T13:25:12;6.72;;;1.02;;
80293;SDS011;69594;43.516;1.498;2023-12-20T13:27:38;4.47;;;1.13;;
80293;SDS011;69594;43.516;1.498;2023-12-20T13:30:03;5.63;;;1.27;;
80293;SDS011;69594;43.516;1.498;2023-12-20T13:32:29;2.83;;;1.30;;
80293;SDS011;69594;43.516;1.498;2023-12-20T13:34:54;3.70;;;1.07;;
80293;SDS011;69594;43.516;1.498;2023-12-20T13:37:20;3.33;;;1.10;;
80293;SDS011;69594;43.516;1.498;2023-12-20T13:39:46;5.18;;;1.15;;
80293;SDS011;69594;43.516;1.498;2023-12-20T13:42:11;3.97;;;1.00;;
80293;SDS011;69594;43.516;1.498;2023-12-20T13:44:36;5.50;;;1.23;;
80293;SDS011;69594;43.516;1.498;2023-12-20T13:47:01;3.87;;;0.97;;
80293;SDS011;69594;43.516;1.498;2023-12-20T13:49:28;3.25;;;0.90;;
80293;SDS011;69594;43.516;1.498;2023-12-20T13:51:54;3.67;;;0.90;;
80293;SDS011;69594;43.516;1.498;2023-12-20T13:54:20;5.88;;;1.00;;
80293;SDS011;69594;43.516;1.498;2023-12-20T13:56:47;6.90;;;1.00;;
80293;SDS011;69594;43.516;1.498;2023-12-20T13:59:12;6.53;;;1.03;;
80293;SDS011;69594;43.516;1.498;2023-12-20T14:01:38;4.90;;;1.27;;
80293;SDS011;69594;43.516;1.498;2023-12-20T14:04:04;4.57;;;1.73;;
80293;SDS011;69594;43.516;1.498;2023-12-20T14:06:29;5.10;;;1.08;;
80293;SDS011;69594;43.516;1.498;2023-12-20T14:08:54;4.30;;;1.10;;
80293;SDS011;69594;43.516;1.498;2023-12-20T14:11:20;2.70;;;1.00;;
80293;SDS011;69594;43.516;1.498;2023-12-20T14:13:45;6.03;;;1.10;;
80293;SDS011;69594;43.516;1.498;2023-12-20T14:16:10;6.27;;;1.50;;
80293;SDS011;69594;43.516;1.498;2023-12-20T14:18:36;3.33;;;0.93;;
80293;SDS011;69594;43.516;1.498;2023-12-20T14:21:01;5.00;;;1.30;;
80293;SDS011;69594;43.516;1.498;2023-12-20T14:23:26;6.83;;;1.17;;
80293;SDS011;69594;43.516;1.498;2023-12-20T14:25:52;3.30;;;1.00;;
80293;SDS011;69594;43.516;1.498;2023-12-20T14:28:17;4.88;;;1.30;;
80293;SDS011;69594;43.516;1.498;2023-12-20T14:30:42;9.90;;;2.73;;
80293;SDS011;69594;43.516;1.498;2023-12-20T14:33:08;6.07;;;1.60;;
80293;SDS011;69594;43.516;1.498;2023-12-20T14:35:33;6.17;;;1.37;;